Time;durP1;ratioP1;P1;durP2;ratioP2;P2;SDS_P1;SDS_P2;PMS_P1;PMS_P2;Temp;Humidity;BMP_temperature;BMP_pressure;BME280_temperature;BME280_humidity;BME280_pressure;Samples;Min_cycle;Max_cycle;Signal;HPM_P1;HPM_P2
2021/03/12 00:00:23;;;;;;;15.83;8.15;;;;;;;-6.93;46.42;102033.77;1739536;81;22659;-76
2021/03/12 00:02:51;;;;;;;20.40;9.95;;;;;;;-6.99;46.73;102030.14;1739449;81;21002;-77
2021/03/12 00:05:20;;;;;;;23.40;10.43;;;;;;;-6.97;47.60;102025.55;1739610;82;20971;-76
2021/03/12 00:07:48;;;;;;;20.65;10.85;;;;;;;-6.88;47.74;102030.95;1739492;82;21500;-75
2021/03/12 00:10:18;;;;;;;17.17;9.78;;;;;;;-6.79;47.75;102022.75;1739627;81;20904;-75
2021/03/12 00:12:47;;;;;;;13.93;8.23;;;;;;;-6.70;47.83;102010.30;1739558;81;21188;-78
2021/03/12 00:15:19;;;;;;;16.73;8.65;;;;;;;-6.65;48.06;102004.08;1739554;82;20950;-77
2021/03/12 00:17:49;;;;;;;15.48;9.55;;;;;;;-6.74;47.27;101999.53;1739250;82;20954;-78
2021/03/12 00:20:26;;;;;;;19.98;9.68;;;;;;;-6.80;47.64;102001.91;1739502;81;20958;-79
2021/03/12 00:22:54;;;;;;;17.75;8.03;;;;;;;-6.92;47.98;102003.62;1739516;81;20935;-78
2021/03/12 00:25:40;;;;;;;17.80;9.03;;;;;;;-6.94;48.10;102003.97;1739610;82;22157;-77
2021/03/12 00:28:09;;;;;;;15.15;8.35;;;;;;;-7.01;46.95;102005.86;1739565;82;21365;-77
2021/03/12 00:30:38;;;;;;;16.35;8.48;;;;;;;-7.24;47.00;102005.07;1739546;82;20935;-76
2021/03/12 00:33:07;;;;;;;14.50;7.55;;;;;;;-7.37;47.42;102004.17;1739508;82;20946;-76
2021/03/12 00:36:19;;;;;;;13.18;6.60;;;;;;;-7.30;47.77;101987.88;1845102;76;22613;-76
2021/03/12 00:38:47;;;;;;;13.95;7.85;;;;;;;-7.20;48.63;101993.28;1786461;79;21096;-75
2021/03/12 00:41:16;;;;;;;14.93;7.85;;;;;;;-7.20;47.22;101989.08;1790127;80;21663;-77
2021/03/12 00:43:46;;;;;;;12.03;7.03;;;;;;;-7.33;46.89;101982.67;1781934;80;21011;-77
2021/03/12 00:46:16;;;;;;;14.58;7.87;;;;;;;-7.50;47.06;101976.97;1817341;79;21487;-77
2021/03/12 00:48:48;;;;;;;12.13;6.00;;;;;;;-7.64;47.25;101978.17;1786477;79;21462;-76
2021/03/12 00:51:17;;;;;;;14.13;7.28;;;;;;;-7.65;47.81;101977.69;1790107;80;20951;-78
2021/03/12 00:53:48;;;;;;;13.00;7.95;;;;;;;-7.62;47.69;101974.00;1783057;79;21811;-77
2021/03/12 00:56:16;;;;;;;15.03;8.85;;;;;;;-7.55;48.03;101973.41;1790042;80;21476;-77
2021/03/12 00:58:44;;;;;;;17.20;9.13;;;;;;;-7.55;47.69;101977.64;1786577;79;20918;-77
2021/03/12 01:01:13;;;;;;;21.15;9.78;;;;;;;-7.61;47.93;101971.91;1786443;80;20919;-77
2021/03/12 01:03:44;;;;;;;20.90;8.65;;;;;;;-7.66;48.28;101973.84;1790036;80;20934;-76
2021/03/12 01:06:13;;;;;;;24.55;9.13;;;;;;;-7.68;48.69;101976.32;1786487;79;21204;-76
2021/03/12 01:08:49;;;;;;;20.37;10.25;;;;;;;-7.64;48.82;101974.35;1818551;78;21037;-77
2021/03/12 01:11:19;;;;;;;20.10;9.48;;;;;;;-7.65;48.74;101966.23;1818691;78;20955;-77
2021/03/12 01:13:48;;;;;;;16.97;8.35;;;;;;;-7.71;48.90;101959.25;1786411;80;21003;-75
2021/03/12 01:16:16;;;;;;;26.40;10.28;;;;;;;-7.68;48.93;101952.13;1790045;80;21050;-77
2021/03/12 01:18:45;;;;;;;17.57;8.30;;;;;;;-7.58;49.17;101951.66;1789990;80;21134;-78
2021/03/12 01:21:18;;;;;;;25.82;9.45;;;;;;;-7.61;48.52;101943.03;1785975;80;21032;-78
2021/03/12 01:23:49;;;;;;;17.55;7.58;;;;;;;-7.71;48.55;101943.98;1790096;80;20990;-77
2021/03/12 01:26:17;;;;;;;17.25;8.35;;;;;;;-7.75;48.47;101942.13;1786486;79;21415;-78
2021/03/12 01:28:47;;;;;;;15.40;8.35;;;;;;;-7.77;48.38;101941.61;1789703;80;21029;-77
2021/03/12 01:31:16;;;;;;;16.93;7.22;;;;;;;-7.84;48.44;101930.75;1787501;79;21797;-75
2021/03/12 01:33:52;;;;;;;15.75;7.33;;;;;;;-7.81;48.63;101933.40;1788955;80;20923;-76
2021/03/12 01:36:22;;;;;;;15.30;7.53;;;;;;;-7.85;48.27;101931.13;1767331;79;20952;-77
2021/03/12 01:38:58;;;;;;;36.53;10.78;;;;;;;-7.94;48.47;101935.89;1822167;78;20986;-76
2021/03/12 01:41:26;;;;;;;19.70;7.55;;;;;;;-8.00;48.71;101935.28;1822828;78;20998;-77
2021/03/12 01:43:55;;;;;;;11.45;6.75;;;;;;;-8.02;48.92;101931.81;1822780;78;22090;-75
2021/03/12 01:46:24;;;;;;;13.62;7.60;;;;;;;-8.08;48.89;101937.08;1822495;78;21365;-76
2021/03/12 01:48:53;;;;;;;13.50;8.55;;;;;;;-8.16;49.27;101930.41;1822182;77;21476;-75
2021/03/12 01:51:21;;;;;;;14.47;7.58;;;;;;;-8.13;49.27;101936.91;1822114;78;20938;-75
2021/03/12 01:53:50;;;;;;;17.17;7.62;;;;;;;-8.15;49.24;101941.06;1822133;77;20927;-76
2021/03/12 01:56:18;;;;;;;14.00;7.50;;;;;;;-8.15;49.32;101937.25;1801938;78;22102;-76
2021/03/12 01:58:48;;;;;;;14.63;7.35;;;;;;;-8.17;49.50;101932.50;1821520;77;21002;-77
2021/03/12 02:01:21;;;;;;;19.62;8.15;;;;;;;-8.12;49.51;101934.81;1821046;78;21017;-77
2021/03/12 02:03:52;;;;;;;17.02;7.40;;;;;;;-8.12;49.39;101943.72;1821758;78;20946;-76
2021/03/12 02:06:25;;;;;;;14.60;7.75;;;;;;;-8.10;49.42;101942.09;1820240;77;21018;-76
2021/03/12 02:08:54;;;;;;;18.40;8.98;;;;;;;-8.09;49.61;101942.95;1801594;77;21820;-76
2021/03/12 02:11:24;;;;;;;15.90;7.40;;;;;;;-8.04;50.10;101935.97;1800203;78;20958;-77
2021/03/12 02:14:05;;;;;;;13.03;7.65;;;;;;;-7.95;50.23;101940.12;1822110;78;20926;-76
2021/03/12 02:16:42;;;;;;;15.75;7.70;;;;;;;-7.92;50.11;101935.13;1822070;78;20884;-76
2021/03/12 02:19:36;;;;;;;14.07;7.60;;;;;;;-7.96;49.84;101948.97;1822047;78;20922;-77
2021/03/12 02:22:05;;;;;;;14.43;8.03;;;;;;;-8.02;49.81;101950.90;1822453;78;21436;-76
2021/03/12 02:24:46;;;;;;;14.38;7.85;;;;;;;-8.02;49.66;101949.63;1801905;77;21353;-77
2021/03/12 02:27:19;;;;;;;21.97;8.68;;;;;;;-7.99;49.95;101945.91;1808546;78;20990;-76
2021/03/12 02:29:53;;;;;;;10.90;7.17;;;;;;;-7.96;50.09;101946.42;1822188;78;21342;-76
2021/03/12 02:32:44;;;;;;;8.70;4.97;;;;;;;-7.94;49.72;101944.42;1822274;78;21364;-76
2021/03/12 02:35:19;;;;;;;11.15;6.15;;;;;;;-7.97;49.51;101947.25;1827718;77;21891;-77
2021/03/12 02:37:48;;;;;;;16.37;7.70;;;;;;;-8.00;49.38;101949.28;1772122;80;21020;-76
2021/03/12 02:40:18;;;;;;;12.23;6.25;;;;;;;-8.16;49.35;101952.93;1775536;80;20998;-76
2021/03/12 02:42:54;;;;;;;16.85;7.62;;;;;;;-8.36;49.60;101952.55;1751494;81;20934;-75
2021/03/12 02:45:23;;;;;;;14.45;6.85;;;;;;;-8.52;50.06;101952.80;1775596;80;20923;-75
2021/03/12 02:47:53;;;;;;;13.72;7.47;;;;;;;-8.63;50.38;101960.00;1770842;80;21368;-77
2021/03/12 02:50:24;;;;;;;18.10;7.87;;;;;;;-8.69;50.76;101958.09;1781985;79;20911;-75
2021/03/12 02:52:54;;;;;;;13.98;7.10;;;;;;;-8.66;50.89;101956.08;1772042;81;20949;-76
2021/03/12 02:55:26;;;;;;;17.07;6.60;;;;;;;-8.59;51.13;101966.95;1779726;79;21479;-77
2021/03/12 02:57:56;;;;;;;16.12;7.35;;;;;;;-8.58;50.80;101961.93;1778486;80;21070;-76
2021/03/12 03:00:25;;;;;;;12.90;6.75;;;;;;;-8.66;50.96;101956.94;1820870;77;21434;-76
2021/03/12 03:03:10;;;;;;;14.28;8.38;;;;;;;-8.74;51.14;101960.84;1724797;80;21032;-77
2021/03/12 03:05:41;;;;;;;11.90;7.53;;;;;;;-8.84;51.43;101960.02;1764566;80;20980;-76
2021/03/12 03:08:12;;;;;;;18.75;7.75;;;;;;;-8.85;51.83;101960.80;1772022;79;20957;-75
2021/03/12 03:10:41;;;;;;;18.30;8.23;;;;;;;-8.79;52.07;101959.37;1775582;80;20968;-75
2021/03/12 03:13:09;;;;;;;21.93;10.78;;;;;;;-8.63;52.23;101949.42;1772103;80;21423;-76
2021/03/12 03:15:38;;;;;;;12.58;7.35;;;;;;;-8.47;51.78;101950.92;1775574;80;20999;-75
2021/03/12 03:18:09;;;;;;;13.72;7.60;;;;;;;-8.44;51.39;101954.84;1771912;81;20988;-77
2021/03/12 03:20:39;;;;;;;16.52;8.05;;;;;;;-8.53;51.58;101962.11;1771892;80;20970;-78
2021/03/12 03:23:09;;;;;;;22.58;8.23;;;;;;;-8.56;51.55;101963.24;1775811;80;20987;-78
2021/03/12 03:25:37;;;;;;;17.75;7.15;;;;;;;-8.64;51.52;101960.82;1772065;80;21348;-78
2021/03/12 03:28:07;;;;;;;14.87;8.38;;;;;;;-8.74;51.73;101963.38;1775194;80;21046;-75
2021/03/12 03:30:36;;;;;;;20.50;8.73;;;;;;;-8.81;51.90;101965.21;1751221;80;21068;-76
2021/03/12 03:33:06;;;;;;;13.65;6.20;;;;;;;-8.85;52.15;101952.77;1775819;80;21026;-75
2021/03/12 03:35:35;;;;;;;20.80;8.58;;;;;;;-8.88;52.34;101961.55;1772096;79;20941;-75
2021/03/12 03:38:03;;;;;;;20.27;6.30;;;;;;;-8.99;52.43;101962.78;1804000;79;21163;-75
2021/03/12 03:40:31;;;;;;;20.55;9.23;;;;;;;-9.06;52.63;101963.34;1803913;79;20908;-74
2021/03/12 03:43:02;;;;;;;13.65;7.37;;;;;;;-9.12;52.77;101961.81;1772055;80;20988;-74
2021/03/12 03:45:31;;;;;;;11.30;7.47;;;;;;;-9.20;52.89;101958.55;1775570;80;20904;-74
2021/03/12 03:48:11;;;;;;;11.70;6.50;;;;;;;-9.25;53.04;101961.31;1769806;80;21490;-75
2021/03/12 03:50:40;;;;;;;15.65;7.85;;;;;;;-9.27;53.29;101961.64;1729092;80;21353;-74
2021/03/12 03:53:10;;;;;;;12.68;5.97;;;;;;;-9.22;53.29;101970.73;1772060;79;21005;-75
2021/03/12 03:55:39;;;;;;;9.25;5.62;;;;;;;-9.20;53.16;101967.85;1803743;79;21022;-75
2021/03/12 03:58:07;;;;;;;16.52;6.67;;;;;;;-9.24;53.19;101965.98;1772019;81;21036;-75
2021/03/12 04:00:35;;;;;;;13.25;7.60;;;;;;;-9.28;53.22;101962.42;1753474;80;20951;-76
2021/03/12 04:03:05;;;;;;;11.43;6.47;;;;;;;-9.27;53.39;101965.45;1771869;79;21223;-76
2021/03/12 04:05:35;;;;;;;18.48;6.12;;;;;;;-9.28;53.35;101966.23;1803216;79;21386;-76
2021/03/12 04:08:03;;;;;;;12.90;6.33;;;;;;;-9.31;53.63;101966.13;1771883;80;20933;-76
2021/03/12 04:10:32;;;;;;;10.20;6.33;;;;;;;-9.35;53.79;101964.66;1775437;80;21027;-76
2021/03/12 04:13:02;;;;;;;17.85;8.43;;;;;;;-9.38;53.90;101967.94;1771981;81;20926;-76
2021/03/12 04:15:31;;;;;;;13.65;6.75;;;;;;;-9.46;54.11;101966.32;1781304;79;21365;-77
2021/03/12 04:18:00;;;;;;;13.15;8.03;;;;;;;-9.44;54.41;101975.28;1803734;79;21385;-77
2021/03/12 04:20:29;;;;;;;19.07;8.38;;;;;;;-9.40;54.23;101971.67;1756089;79;21026;-78
2021/03/12 04:22:57;;;;;;;15.95;7.87;;;;;;;-9.31;54.35;101966.13;1803626;79;20995;-78
2021/03/12 04:25:28;;;;;;;16.75;7.60;;;;;;;-9.18;54.17;101968.38;1772075;80;20992;-77
2021/03/12 04:27:55;;;;;;;10.32;4.97;;;;;;;-9.14;53.61;101969.36;1775516;80;21374;-78
2021/03/12 04:30:24;;;;;;;14.03;6.75;;;;;;;-9.21;53.68;101964.42;1772050;80;21684;-77
2021/03/12 04:32:52;;;;;;;14.00;7.12;;;;;;;-9.31;53.95;101968.66;1756326;79;20904;-77
2021/03/12 04:35:21;;;;;;;18.40;7.30;;;;;;;-9.37;54.20;101968.80;1780851;79;20955;-75
2021/03/12 04:37:49;;;;;;;13.95;6.42;;;;;;;-9.39;54.32;101962.37;1803795;79;21381;-75
2021/03/12 04:40:18;;;;;;;15.00;7.30;;;;;;;-9.38;54.38;101965.40;1771984;81;21797;-74
2021/03/12 04:42:48;;;;;;;16.37;7.08;;;;;;;-9.33;54.50;101961.78;1775429;80;21436;-78
2021/03/12 04:45:18;;;;;;;13.03;5.92;;;;;;;-9.24;54.23;101970.66;1749930;81;21005;-78
2021/03/12 04:47:48;;;;;;;14.70;6.58;;;;;;;-9.18;54.13;101958.63;1803701;79;20999;-77
2021/03/12 04:50:17;;;;;;;16.32;5.72;;;;;;;-9.14;54.04;101961.73;1750181;80;21422;-78
2021/03/12 04:52:45;;;;;;;13.78;6.70;;;;;;;-9.08;54.04;101955.64;1728040;80;21588;-79
2021/03/12 04:55:15;;;;;;;15.60;8.45;;;;;;;-8.98;53.88;101946.34;1771861;79;20958;-77
2021/03/12 04:57:45;;;;;;;18.73;9.53;;;;;;;-8.72;53.50;101929.13;1803603;79;20944;-77
2021/03/12 05:00:15;;;;;;;20.70;8.03;;;;;;;-8.40;52.89;101926.59;1771882;80;20941;-79
2021/03/12 05:02:48;;;;;;;13.22;8.28;;;;;;;-8.08;51.95;101921.80;1774907;80;21540;-79
2021/03/12 05:05:17;;;;;;;15.93;7.45;;;;;;;-7.82;51.45;101929.13;1750263;81;22244;-79
2021/03/12 05:07:45;;;;;;;17.45;7.10;;;;;;;-7.62;50.87;101919.66;1781136;79;20951;-79
2021/03/12 05:10:21;;;;;;;18.90;7.10;;;;;;;-7.47;50.45;101930.36;1770732;80;20948;-80
2021/03/12 05:12:49;;;;;;;8.10;6.28;;;;;;;-7.35;49.86;101940.98;1766575;80;21014;-80
2021/03/12 05:15:19;;;;;;;14.07;6.78;;;;;;;-7.21;49.42;101948.23;1770714;80;20953;-78
2021/03/12 05:17:48;;;;;;;16.40;7.37;;;;;;;-6.99;49.49;101953.66;1803729;79;21491;-78
2021/03/12 05:20:17;;;;;;;16.05;7.42;;;;;;;-6.60;48.87;101962.13;1772021;80;21032;-78
2021/03/12 05:22:45;;;;;;;16.12;7.83;;;;;;;-6.32;48.51;101959.63;1775605;80;20924;-77
2021/03/12 05:25:13;;;;;;;15.43;8.63;;;;;;;-6.00;48.00;101969.08;1772006;79;20925;-78
2021/03/12 05:27:41;;;;;;;18.77;8.93;;;;;;;-5.67;47.42;101975.55;1803939;79;20939;-80
2021/03/12 05:30:10;;;;;;;20.77;7.50;;;;;;;-5.39;46.65;101989.97;1772118;81;21824;-77
2021/03/12 05:32:40;;;;;;;13.13;7.00;;;;;;;-5.15;46.24;101994.88;1775533;80;20971;-82
2021/03/12 05:35:11;;;;;;;19.15;6.67;;;;;;;-4.91;44.68;102001.45;1750632;81;21530;-83
2021/03/12 05:37:43;;;;;;;14.13;5.62;;;;;;;-4.96;44.63;102006.45;1781204;79;21487;-87
2021/03/12 05:40:11;;;;;;;12.05;6.05;;;;;;;-5.03;44.55;102009.26;1816907;79;20932;-89
2021/03/12 05:42:42;;;;;;;13.65;6.62;;;;;;;-5.04;45.05;101990.92;1785546;79;21209;-87
2021/03/12 05:45:13;;;;;;;17.05;7.60;;;;;;;-4.85;44.16;101963.23;1817283;79;20956;-86
2021/03/12 05:47:42;;;;;;;15.15;7.65;;;;;;;-4.69;44.15;101957.69;1815590;79;20952;-87
2021/03/12 05:50:13;;;;;;;15.45;7.83;;;;;;;-4.42;43.88;101944.67;1818586;79;20985;-88
2021/03/12 05:52:43;;;;;;;12.15;6.60;;;;;;;-4.18;43.24;101939.23;1787127;79;21346;-89
2021/03/12 05:55:16;;;;;;;19.23;8.45;;;;;;;-4.14;42.77;101932.89;1818622;78;21194;-87
2021/03/12 05:57:47;;;;;;;18.95;8.13;;;;;;;-4.14;43.07;101935.02;1817780;79;20967;-84
2021/03/12 06:00:17;;;;;;;16.12;6.87;;;;;;;-3.82;41.89;101924.61;1817059;79;21051;-83
2021/03/12 06:02:46;;;;;;;11.93;7.05;;;;;;;-3.46;41.69;101913.34;1816283;79;20956;-86
2021/03/12 06:05:16;;;;;;;15.28;7.40;;;;;;;-2.96;40.75;101914.63;1814980;79;21027;-84
2021/03/12 06:07:48;;;;;;;22.82;7.30;;;;;;;-2.49;39.71;101905.50;1816800;78;22342;-84
2021/03/12 06:10:18;;;;;;;22.73;6.97;;;;;;;-2.21;39.27;101919.61;1785743;79;21008;-83
2021/03/12 06:12:54;;;;;;;14.00;6.50;;;;;;;-1.91;38.66;101919.16;1785044;79;21008;-88
2021/03/12 06:15:35;;;;;;;12.40;7.12;;;;;;;-1.68;37.94;101912.98;1817260;79;21004;-87
2021/03/12 06:18:21;;;;;;;25.65;8.43;;;;;;;-1.41;37.37;101908.98;1790219;79;21463;-83
2021/03/12 06:20:50;;;;;;;15.63;7.70;;;;;;;-1.25;37.03;101909.56;1816968;79;22173;-86
2021/03/12 06:23:39;;;;;;;17.40;6.92;;;;;;;-1.06;36.83;101899.47;1816683;79;20996;-78
2021/03/12 06:26:13;;;;;;;14.73;7.42;;;;;;;-0.86;36.40;101909.92;1815047;78;20979;-79
2021/03/12 06:28:45;;;;;;;15.28;7.20;;;;;;;-0.67;35.46;101928.55;1815033;78;20932;-79
2021/03/12 06:31:30;;;;;;;15.03;7.10;;;;;;;-0.83;35.24;101931.83;1812641;79;21039;-82
2021/03/12 06:34:17;;;;;;;17.77;6.67;;;;;;;-1.13;35.91;101923.00;1816557;79;21374;-79
2021/03/12 06:37:29;;;;;;;15.98;6.67;;;;;;;-1.24;35.47;101934.91;1830749;77;21053;-79
2021/03/12 06:40:12;;;;;;;23.02;7.97;;;;;;;-1.34;35.91;101937.78;1802048;77;20987;-80
2021/03/12 06:43:15;;;;;;;18.02;7.25;;;;;;;-1.16;35.73;101931.95;1791205;77;20927;-81
2021/03/12 06:45:53;;;;;;;16.37;6.33;;;;;;;-1.11;35.75;101946.16;1760136;80;21043;-79
2021/03/12 06:48:33;;;;;;;29.18;7.25;;;;;;;-0.84;36.10;101941.70;1844889;77;21415;-79
2021/03/12 06:51:15;;;;;;;13.43;7.75;;;;;;;-0.51;35.20;101935.95;1792166;80;20930;-80
2021/03/12 06:53:45;;;;;;;13.53;6.50;;;;;;;-0.22;34.93;101944.30;1752325;81;20959;-80
2021/03/12 06:56:18;;;;;;;12.65;7.72;;;;;;;-0.07;34.81;101944.39;1752375;81;21515;-82
2021/03/12 06:59:04;;;;;;;13.35;6.80;;;;;;;0.13;34.80;101950.05;1752094;81;20979;-82
2021/03/12 07:02:03;;;;;;;11.65;6.35;;;;;;;0.43;34.74;101940.29;1876349;75;22756;-81
2021/03/12 07:04:33;;;;;;;16.25;6.78;;;;;;;0.60;34.54;101946.38;1819431;78;21018;-80
2021/03/12 07:07:34;;;;;;;12.98;6.25;;;;;;;0.87;34.17;101954.14;1819611;78;25909;-79
2021/03/12 07:10:09;;;;;;;9.80;7.55;;;;;;;1.12;33.57;101974.00;1819597;77;20982;-79
2021/03/12 07:12:51;;;;;;;10.65;7.47;;;;;;;1.23;33.54;101974.86;1818451;78;21325;-79
2021/03/12 07:15:24;;;;;;;13.70;7.20;;;;;;;1.33;33.53;101957.62;1819353;78;21586;-80
2021/03/12 07:18:03;;;;;;;11.65;7.78;;;;;;;1.52;33.46;101951.18;1819627;77;21021;-81
2021/03/12 07:20:32;;;;;;;14.30;7.42;;;;;;;1.78;32.71;101948.13;1820263;78;21356;-79
2021/03/12 07:23:02;;;;;;;16.87;6.53;;;;;;;1.81;32.36;101947.25;1819932;78;21020;-78
2021/03/12 07:25:32;;;;;;;17.30;8.40;;;;;;;1.84;32.77;101945.94;1820134;77;21460;-81
2021/03/12 07:28:07;;;;;;;17.85;6.17;;;;;;;1.87;32.20;101949.83;1819501;78;21088;-79
2021/03/12 07:30:35;;;;;;;14.35;7.08;;;;;;;2.03;31.93;101945.03;1814095;78;21392;-80
2021/03/12 07:33:03;;;;;;;12.20;6.80;;;;;;;2.15;32.13;101941.52;1820149;77;21365;-79
2021/03/12 07:35:33;;;;;;;10.78;6.45;;;;;;;2.15;31.80;101944.55;1819489;78;21044;-79
2021/03/12 07:38:06;;;;;;;12.03;5.53;;;;;;;2.07;32.43;101945.45;1817790;78;21021;-84
2021/03/12 07:40:36;;;;;;;18.02;6.87;;;;;;;2.10;31.68;101935.95;1819811;78;21026;-81
2021/03/12 07:43:07;;;;;;;15.40;6.55;;;;;;;1.93;31.87;101938.14;1788774;78;20990;-81
2021/03/12 07:45:43;;;;;;;15.38;6.10;;;;;;;1.78;32.34;101930.02;1819812;78;22157;-82
2021/03/12 07:48:13;;;;;;;12.18;5.65;;;;;;;1.71;32.21;101922.27;1820690;78;21019;-79
2021/03/12 07:50:43;;;;;;;20.17;6.50;;;;;;;1.70;31.97;101927.88;1818478;78;21072;-86
2021/03/12 07:53:13;;;;;;;8.20;6.03;;;;;;;1.51;32.01;101936.08;1819830;78;21013;-82
2021/03/12 07:55:48;;;;;;;14.28;6.25;;;;;;;1.25;32.17;101927.08;1819433;77;20971;-83
2021/03/12 07:58:55;;;;;;;13.95;6.62;;;;;;;1.24;32.65;101931.39;1801488;78;21193;-82
2021/03/12 08:01:50;;;;;;;13.32;6.65;;;;;;;1.46;32.69;101932.64;1815121;77;21495;-80
2021/03/12 08:04:30;;;;;;;13.35;6.33;;;;;;;1.79;32.28;101925.26;1818937;78;20946;-82
2021/03/12 08:07:19;;;;;;;19.40;6.87;;;;;;;2.07;31.32;101927.78;1818675;78;20938;-87
2021/03/12 08:09:53;;;;;;;13.25;6.17;;;;;;;2.31;31.17;101915.14;1820290;77;20911;-84
2021/03/12 08:12:39;;;;;;;8.83;5.58;;;;;;;2.39;30.58;101907.35;1808592;78;20990;-84
2021/03/12 08:15:20;;;;;;;12.07;4.80;;;;;;;2.39;30.46;101900.44;1817006;78;20942;-83
2021/03/12 08:18:04;;;;;;;13.18;6.08;;;;;;;2.27;30.46;101885.84;1818863;78;21026;-84
2021/03/12 08:20:39;;;;;;;9.83;5.53;;;;;;;2.21;30.72;101878.11;1818066;78;20993;-81
2021/03/12 08:23:33;;;;;;;10.48;5.35;;;;;;;2.22;30.27;101879.84;1819669;78;20954;-82
2021/03/12 08:26:09;;;;;;;11.93;5.22;;;;;;;2.13;29.83;101894.09;1852559;77;22753;-82
2021/03/12 08:28:51;;;;;;;13.20;5.83;;;;;;;2.03;30.12;101898.45;1815431;78;21053;-83
2021/03/12 08:31:42;;;;;;;11.90;5.42;;;;;;;1.97;30.67;101888.56;1748780;82;21376;-83
2021/03/12 08:34:41;;;;;;;10.60;5.55;;;;;;;2.10;30.95;101897.14;1817917;78;20994;-80
2021/03/12 08:37:36;;;;;;;12.63;5.83;;;;;;;2.21;30.41;101879.40;1750473;81;20942;-91
2021/03/12 08:40:19;;;;;;;9.13;6.17;;;;;;;2.35;30.47;101879.76;1818251;78;20942;-90
2021/03/12 08:43:15;;;;;;;11.08;6.35;;;;;;;2.24;29.06;101865.14;1750518;81;21479;-86
2021/03/12 08:45:48;;;;;;;10.68;5.72;;;;;;;2.08;28.91;101877.73;1820123;78;22186;-80
2021/03/12 08:48:29;;;;;;;8.60;5.65;;;;;;;1.89;29.90;101875.67;1819830;78;26330;-80
2021/03/12 08:51:05;;;;;;;12.00;6.60;;;;;;;1.80;30.40;101882.15;1820099;78;20891;-78
2021/03/12 08:53:41;;;;;;;12.43;4.90;;;;;;;1.81;30.65;101883.89;1819649;78;21029;-81
2021/03/12 08:56:10;;;;;;;12.88;5.97;;;;;;;1.89;30.47;101882.55;1721444;82;20945;-80
2021/03/12 08:58:40;;;;;;;10.13;6.03;;;;;;;1.80;30.14;101879.16;1818680;78;21373;-80
2021/03/12 09:01:16;;;;;;;10.35;6.15;;;;;;;1.69;30.31;101875.74;1748432;81;21507;-80
2021/03/12 09:03:56;;;;;;;14.58;5.92;;;;;;;1.45;30.53;101887.84;1819132;78;21376;-81
2021/03/12 09:06:36;;;;;;;9.35;4.55;;;;;;;1.30;30.03;101878.83;1818166;78;20959;-80
2021/03/12 09:09:10;;;;;;;8.08;5.25;;;;;;;1.15;29.96;101871.94;1747393;81;21040;-81
2021/03/12 09:11:46;;;;;;;9.20;5.80;;;;;;;0.95;30.57;101866.78;1781594;80;21167;-80
2021/03/12 09:14:29;;;;;;;13.08;6.22;;;;;;;1.08;31.00;101856.47;1775538;79;22711;-80
2021/03/12 09:17:00;;;;;;;14.10;7.37;;;;;;;1.23;31.49;101847.41;1750087;82;21051;-82
2021/03/12 09:19:32;;;;;;;10.07;6.67;;;;;;;1.48;31.25;101840.45;1720615;82;21360;-82
2021/03/12 09:22:02;;;;;;;14.87;7.87;;;;;;;1.68;30.44;101832.63;1749211;82;20971;-78
2021/03/12 09:24:31;;;;;;;18.37;7.72;;;;;;;1.81;31.08;101837.33;1748786;82;20958;-74
2021/03/12 09:26:59;;;;;;;15.15;7.35;;;;;;;1.98;29.96;101832.95;1720970;82;21018;-78
2021/03/12 09:29:36;;;;;;;20.92;9.98;;;;;;;1.97;30.01;101836.39;1721657;82;21361;-78
2021/03/12 09:32:07;;;;;;;15.03;8.33;;;;;;;1.86;30.32;101828.67;1749693;81;21919;-76
2021/03/12 09:34:37;;;;;;;17.07;9.60;;;;;;;1.70;30.16;101823.15;1749131;82;21026;-79
2021/03/12 09:37:13;;;;;;;16.73;8.15;;;;;;;1.50;30.39;101817.19;1748878;82;20955;-80
2021/03/12 09:39:59;;;;;;;15.35;7.00;;;;;;;1.31;30.52;101815.08;1749667;82;21002;-79
2021/03/12 09:42:30;;;;;;;22.22;9.95;;;;;;;1.11;30.58;101823.75;1745855;81;21018;-79
2021/03/12 09:45:01;;;;;;;17.60;8.63;;;;;;;0.99;30.71;101823.31;1720906;82;22316;-81
2021/03/12 09:47:31;;;;;;;18.37;10.00;;;;;;;0.93;30.82;101828.91;1749345;82;20974;-79
2021/03/12 09:50:02;;;;;;;15.65;8.60;;;;;;;0.91;31.15;101817.72;1749018;82;20936;-78
2021/03/12 09:52:35;;;;;;;15.32;7.87;;;;;;;0.95;30.63;101816.86;1747645;82;20923;-78
2021/03/12 09:55:21;;;;;;;26.68;9.75;;;;;;;0.97;30.82;101807.39;1747683;82;20939;-78
2021/03/12 09:57:49;;;;;;;22.10;10.53;;;;;;;1.19;30.77;101808.22;1749690;82;21798;-79
2021/03/12 10:00:22;;;;;;;28.87;10.38;;;;;;;1.37;31.20;101793.95;1749304;82;21078;-78
2021/03/12 10:02:55;;;;;;;20.60;9.45;;;;;;;1.53;31.37;101786.15;1749911;80;21472;-81
2021/03/12 10:05:28;;;;;;;21.07;12.28;;;;;;;1.75;31.77;101768.83;1747126;82;20947;-81
2021/03/12 10:08:05;;;;;;;14.73;8.65;;;;;;;1.93;31.53;101771.30;1748315;80;21390;-80
2021/03/12 10:10:35;;;;;;;21.12;9.43;;;;;;;2.06;31.26;101774.24;1747450;80;21805;-81
2021/03/12 10:13:06;;;;;;;15.30;8.05;;;;;;;2.22;31.02;101774.15;1745334;81;21038;-82
2021/03/12 10:15:42;;;;;;;17.45;8.78;;;;;;;2.25;30.24;101776.73;1736132;82;20928;-80
2021/03/12 10:18:29;;;;;;;16.12;9.18;;;;;;;2.15;30.22;101765.56;1736637;81;21042;-80
2021/03/12 10:21:10;;;;;;;17.02;9.28;;;;;;;2.08;30.64;101762.60;1734989;82;21023;-84
2021/03/12 10:23:38;;;;;;;16.57;7.20;;;;;;;2.03;30.67;101769.10;1736665;82;21208;-83
2021/03/12 10:26:08;;;;;;;18.15;10.15;;;;;;;1.97;31.00;101755.34;1736065;81;21015;-83
2021/03/12 10:28:36;;;;;;;29.18;10.95;;;;;;;1.93;30.00;101754.49;1736062;82;21043;-82
2021/03/12 10:31:05;;;;;;;19.87;9.33;;;;;;;1.88;30.32;101760.13;1736133;82;21039;-83
2021/03/12 10:33:34;;;;;;;23.15;11.55;;;;;;;1.94;30.43;101751.50;1735997;82;20944;-80
2021/03/12 10:36:11;;;;;;;20.40;10.60;;;;;;;2.05;30.97;101736.77;1736240;81;21804;-81
2021/03/12 10:38:39;;;;;;;19.65;9.30;;;;;;;2.16;30.72;101757.39;1716257;82;21042;-78
2021/03/12 10:41:18;;;;;;;14.53;8.68;;;;;;;2.38;30.31;101749.01;1691209;82;20999;-78
2021/03/12 10:43:58;;;;;;;19.25;9.38;;;;;;;2.52;30.17;101735.97;1736047;81;20927;-78
2021/03/12 10:46:26;;;;;;;14.73;8.50;;;;;;;2.58;29.81;101729.42;1735865;81;21040;-78
2021/03/12 10:48:55;;;;;;;25.27;8.90;;;;;;;2.62;30.23;101732.41;1735881;82;21472;-79
2021/03/12 10:51:23;;;;;;;22.67;10.95;;;;;;;2.67;30.30;101723.74;1736070;81;21509;-76
2021/03/12 10:53:55;;;;;;;17.70;10.30;;;;;;;2.76;30.48;101716.73;1692642;82;21110;-80
2021/03/12 10:56:27;;;;;;;22.60;11.40;;;;;;;2.83;29.96;101707.61;1736113;81;20959;-81
2021/03/12 10:58:56;;;;;;;19.82;11.15;;;;;;;2.82;29.34;101702.44;1736157;82;21019;-81
2021/03/12 11:01:29;;;;;;;23.42;12.35;;;;;;;2.64;29.63;101691.83;1664592;82;21226;-78
2021/03/12 11:04:00;;;;;;;17.90;9.47;;;;;;;2.47;29.94;101675.18;1736294;82;21015;-83
2021/03/12 11:06:31;;;;;;;15.05;9.53;;;;;;;2.47;29.94;101675.18;1736007;82;21421;-83
2021/03/12 11:09:09;;;;;;;22.25;10.32;;;;;;;2.56;29.94;101665.17;1735916;82;20988;-82
2021/03/12 11:11:35;;;;;;;18.27;9.90;;;;;;;2.57;29.36;101658.66;1735726;81;20951;-82
2021/03/12 11:14:04;;;;;;;21.00;10.03;;;;;;;2.55;29.63;101647.45;1744102;81;22043;-81
2021/03/12 11:16:33;;;;;;;22.27;11.40;;;;;;;2.68;29.79;101654.23;1749815;82;21341;-79
2021/03/12 11:19:02;;;;;;;19.82;10.45;;;;;;;2.75;29.71;101646.40;1749837;80;20935;-82
2021/03/12 11:21:31;;;;;;;17.67;10.85;;;;;;;2.72;30.14;101637.37;1749523;82;20975;-82
2021/03/12 11:23:59;;;;;;;17.17;10.80;;;;;;;2.68;30.08;101637.39;1749864;82;20990;-80
2021/03/12 11:26:30;;;;;;;16.35;10.65;;;;;;;2.74;30.05;101640.81;1749881;82;22673;-81
2021/03/12 11:28:59;;;;;;;16.48;8.83;;;;;;;2.80;29.67;101637.72;1749840;82;20991;-81
2021/03/12 11:31:27;;;;;;;15.10;8.25;;;;;;;2.77;29.29;101644.20;1749892;82;20999;-83
2021/03/12 11:33:59;;;;;;;19.45;9.05;;;;;;;2.67;29.68;101645.20;1749963;82;21010;-82
2021/03/12 11:36:27;;;;;;;15.93;9.48;;;;;;;2.54;29.49;101646.20;1750021;82;21445;-82
2021/03/12 11:38:56;;;;;;;20.23;8.95;;;;;;;2.39;29.93;101643.31;1750028;82;22047;-85
2021/03/12 11:41:24;;;;;;;17.98;9.83;;;;;;;2.35;30.44;101623.51;1750231;82;21105;-83
2021/03/12 11:43:53;;;;;;;18.48;10.32;;;;;;;2.35;30.75;101623.06;1750217;82;21385;-83
2021/03/12 11:46:21;;;;;;;18.73;10.20;;;;;;;2.40;30.89;101608.37;1749808;82;20951;-82